Wetterstation Vordersexau
Wetterdaten: Woche 25.12.23 - 31.12.23 (KW52)
Datum Zeit Temp. A. Feuchte A. Luftdruck Regen Wind Richtung Taupunkt Windchill Windben
25.12.2023 00:00 12,0 C 57 % 1009,3 hPa 0,0 l/m 14,0 km/h (3 Bft) W-SW 3,6 C 8,0 C 22,0 km/h (4 Bft)
25.12.2023 01:00 11,9 C 55 % 1009,7 hPa 0,0 l/m 17,6 km/h (3 Bft) W-SW 3,2 C 6,6 C 26,3 km/h (4 Bft)
25.12.2023 02:00 11,7 C 56 % 1009,3 hPa 0,0 l/m 15,3 km/h (3 Bft) SW 3,1 C 7,1 C 22,0 km/h (4 Bft)
25.12.2023 03:00 11,5 C 55 % 1010,0 hPa 0,0 l/m 15,8 km/h (3 Bft) S 2,8 C 6,6 C 22,0 km/h (4 Bft)
25.12.2023 04:00 11,0 C 57 % 1009,9 hPa 0,0 l/m 17,3 km/h (3 Bft) S-SW 2,7 C 5,5 C 25,6 km/h (4 Bft)
25.12.2023 05:00 10,2 C 59 % 1010,3 hPa 0,0 l/m 14,0 km/h (3 Bft) SW 2,4 C 5,9 C 23,8 km/h (4 Bft)
25.12.2023 06:00 9,7 C 61 % 1010,6 hPa 0,0 l/m 13,5 km/h (3 Bft) SW 2,4 C 5,5 C 20,9 km/h (4 Bft)
25.12.2023 07:00 9,6 C 62 % 1010,7 hPa 0,0 l/m 15,9 km/h (3 Bft) SW 2,7 C 4,4 C 23,3 km/h (4 Bft)
25.12.2023 08:00 9,4 C 65 % 1010,8 hPa 0,0 l/m 13,5 km/h (3 Bft) S-SW 3,0 C 5,0 C 19,6 km/h (3 Bft)
25.12.2023 09:00 9,1 C 71 % 1011,4 hPa 0,0 l/m 12,3 km/h (3 Bft) SW 4,1 C 5,4 C 17,8 km/h (3 Bft)
25.12.2023 10:00 9,3 C 73 % 1011,5 hPa 0,0 l/m 14,6 km/h (3 Bft) S-SW 4,6 C 4,4 C 21,5 km/h (4 Bft)
25.12.2023 11:00 10,3 C 72 % 1011,4 hPa 0,0 l/m 16,5 km/h (3 Bft) SW 5,5 C 4,9 C 23,8 km/h (4 Bft)
25.12.2023 12:00 10,1 C 74 % 1010,9 hPa 0,0 l/m 16,5 km/h (3 Bft) SW 5,6 C 4,7 C 25,0 km/h (4 Bft)
25.12.2023 13:00 10,6 C 74 % 1009,6 hPa 0,0 l/m 14,1 km/h (3 Bft) S-SW 6,2 C 6,3 C 22,7 km/h (4 Bft)
25.12.2023 14:00 11,9 C 72 % 1009,0 hPa 0,0 l/m 8,6 km/h (2 Bft) SW 6,9 C 10,5 C 13,5 km/h (3 Bft)
25.12.2023 15:00 11,2 C 73 % 1007,5 hPa 0,0 l/m 12,2 km/h (2 Bft) SW 6,4 C 8,0 C 19,6 km/h (3 Bft)
25.12.2023 16:00 10,1 C 73 % 1008,1 hPa 0,0 l/m 12,8 km/h (3 Bft) S 5,5 C 6,3 C 22,7 km/h (4 Bft)
25.12.2023 17:00 9,5 C 74 % 1008,8 hPa 0,0 l/m 9,1 km/h (2 Bft) S 5,0 C 7,6 C 16,0 km/h (3 Bft)
25.12.2023 18:00 9,6 C 73 % 1009,1 hPa 0,0 l/m 11,7 km/h (2 Bft) S-SW 5,0 C 6,2 C 19,6 km/h (3 Bft)
25.12.2023 19:00 9,7 C 74 % 1008,8 hPa 0,0 l/m 9,1 km/h (2 Bft) S 5,3 C 7,6 C 13,5 km/h (3 Bft)
25.12.2023 20:00 9,4 C 76 % 1008,3 hPa 0,0 l/m 9,1 km/h (2 Bft) S-SW 5,2 C 7,4 C 15,3 km/h (3 Bft)
25.12.2023 21:00 9,2 C 76 % 1008,1 hPa 0,0 l/m 13,5 km/h (3 Bft) S-SW 5,1 C 5,1 C 19,6 km/h (3 Bft)
25.12.2023 22:00 8,9 C 77 % 1008,0 hPa 0,0 l/m 12,3 km/h (3 Bft) S-SW 5,1 C 5,3 C 19,1 km/h (3 Bft)
25.12.2023 23:00 8,6 C 78 % 1008,3 hPa 0,0 l/m 10,4 km/h (2 Bft) S-SW 5,0 C 5,8 C 16,0 km/h (3 Bft)
26.12.2023 00:00 8,6 C 79 % 1008,5 hPa 0,0 l/m 8,6 km/h (2 Bft) S-SW 5,0 C 6,9 C 15,9 km/h (3 Bft)
26.12.2023 01:00 8,6 C 78 % 1008,6 hPa 0,0 l/m 9,1 km/h (2 Bft) S-SW 4,9 C 6,6 C 14,8 km/h (3 Bft)
26.12.2023 02:00 8,4 C 79 % 1009,0 hPa 0,0 l/m 9,7 km/h (2 Bft) S-SW 5,0 C 6,0 C 15,3 km/h (3 Bft)
26.12.2023 03:00 8,4 C 79 % 1009,4 hPa 0,0 l/m 12,2 km/h (2 Bft) S-SW 5,0 C 4,6 C 17,8 km/h (3 Bft)
26.12.2023 04:00 8,3 C 80 % 1009,9 hPa 0,0 l/m 10,9 km/h (2 Bft) SW 5,0 C 5,1 C 17,8 km/h (3 Bft)
26.12.2023 05:00 8,1 C 81 % 1010,3 hPa 0,0 l/m 10,4 km/h (2 Bft) SW 5,0 C 5,2 C 16,0 km/h (3 Bft)
26.12.2023 06:00 8,1 C 81 % 1010,5 hPa 0,0 l/m 8,6 km/h (2 Bft) W-SW 5,0 C 6,4 C 13,0 km/h (3 Bft)
26.12.2023 07:00 8,1 C 81 % 1011,3 hPa 0,0 l/m 10,4 km/h (2 Bft) W-SW 5,0 C 5,2 C 19,6 km/h (3 Bft)
26.12.2023 08:00 8,3 C 80 % 1012,0 hPa 0,0 l/m 7,9 km/h (2 Bft) SW 5,1 C 7,1 C 12,3 km/h (3 Bft)
26.12.2023 09:00 8,6 C 80 % 1012,2 hPa 0,0 l/m 11,2 km/h (2 Bft) S-SW 5,4 C 5,4 C 14,8 km/h (3 Bft)
26.12.2023 10:00 9,1 C 79 % 1013,1 hPa 0,0 l/m 12,3 km/h (3 Bft) SW 5,6 C 5,4 C 17,8 km/h (3 Bft)
26.12.2023 11:00 9,6 C 76 % 1013,1 hPa 0,0 l/m 20,2 km/h (4 Bft) W-SW 5,5 C 2,9 C 27,5 km/h (4 Bft)
26.12.2023 12:00 9,8 C 75 % 1013,0 hPa 0,0 l/m 16,5 km/h (3 Bft) S-SW 5,6 C 4,3 C 24,5 km/h (4 Bft)
26.12.2023 13:00 9,8 C 75 % 1013,0 hPa 0,0 l/m 12,3 km/h (3 Bft) SW 5,6 C 6,2 C 16,6 km/h (3 Bft)
26.12.2023 14:00 9,8 C 74 % 1012,8 hPa 0,0 l/m 11,5 km/h (2 Bft) SW 5,4 C 6,6 C 17,1 km/h (3 Bft)
26.12.2023 15:00 9,6 C 75 % 1013,0 hPa 0,0 l/m 11,0 km/h (2 Bft) SW 5,4 C 6,9 C 16,0 km/h (3 Bft)
26.12.2023 16:00 9,6 C 75 % 1013,1 hPa 0,0 l/m 12,2 km/h (2 Bft) W-SW 5,4 C 6,2 C 17,6 km/h (3 Bft)
26.12.2023 17:00 9,2 C 76 % 1014,2 hPa 0,0 l/m 7,2 km/h (2 Bft) S-SW 5,2 C 8,6 C 11,5 km/h (2 Bft)
26.12.2023 18:00 8,9 C 77 % 1014,2 hPa 0,0 l/m 8,6 km/h (2 Bft) SW 5,0 C 7,3 C 13,3 km/h (3 Bft)
26.12.2023 19:00 8,8 C 77 % 1008,2 hPa 0,0 l/m 9,7 km/h (2 Bft) S-SW 5,0 C 6,5 C 14,1 km/h (3 Bft)
26.12.2023 20:00 8,4 C 78 % 1014,3 hPa 0,0 l/m 5,0 km/h (1 Bft) W-SW 4,7 C 8,4 C 7,2 km/h (2 Bft)
26.12.2023 21:00 7,4 C 83 % 1014,7 hPa 0,0 l/m 1,8 km/h (1 Bft) S-SW 4,6 C 7,4 C 4,3 km/h (1 Bft)
26.12.2023 22:00 5,9 C 89 % 1014,8 hPa 0,0 l/m 1,3 km/h (1 Bft) N 4,2 C 5,9 C 2,5 km/h (1 Bft)
26.12.2023 23:00 4,9 C 91 % 1015,0 hPa 0,0 l/m 0,0 km/h (0 Bft) N 3,5 C 4,9 C 0,0 km/h (0 Bft)
27.12.2023 00:00 4,6 C 93 % 1015,5 hPa 0,0 l/m 0,6 km/h (0 Bft) SO 3,5 C 4,6 C 2,5 km/h (1 Bft)
27.12.2023 01:00 4,3 C 93 % 1015,6 hPa 0,0 l/m 0,6 km/h (0 Bft) N 3,3 C 4,3 C 1,8 km/h (1 Bft)
27.12.2023 02:00 4,0 C 94 % 1015,6 hPa 0,0 l/m 0,6 km/h (0 Bft) SO 3,0 C 4,0 C 2,5 km/h (1 Bft)
27.12.2023 03:00 3,8 C 95 % 1015,5 hPa 0,0 l/m 1,3 km/h (1 Bft) SO 3,0 C 3,8 C 3,0 km/h (1 Bft)
27.12.2023 04:00 3,5 C 95 % 1015,1 hPa 0,0 l/m 1,8 km/h (1 Bft) SO 2,8 C 3,5 C 4,3 km/h (1 Bft)
27.12.2023 05:00 3,3 C 96 % 1014,8 hPa 0,0 l/m 1,8 km/h (1 Bft) O-SO 2,8 C 3,3 C 1,8 km/h (1 Bft)
27.12.2023 06:00 3,3 C 96 % 1014,7 hPa 0,0 l/m 2,5 km/h (1 Bft) SO 2,7 C 3,3 C 6,1 km/h (2 Bft)
27.12.2023 07:00 3,3 C 96 % 1014,8 hPa 0,0 l/m 0,6 km/h (0 Bft) SO 2,8 C 3,3 C 3,0 km/h (1 Bft)
27.12.2023 08:00 2,8 C 96 % 1015,0 hPa 0,0 l/m 0,0 km/h (0 Bft) N 2,2 C 2,8 C 1,3 km/h (1 Bft)
27.12.2023 09:00 3,4 C 96 % 1014,8 hPa 0,0 l/m 0,0 km/h (0 Bft) O-SO 2,7 C 3,4 C 2,5 km/h (1 Bft)
27.12.2023 10:00 4,7 C 93 % 1014,3 hPa 0,0 l/m 1,8 km/h (1 Bft) N-NO 3,5 C 4,7 C 3,0 km/h (1 Bft)
27.12.2023 11:00 6,6 C 86 % 1013,6 hPa 0,0 l/m 0,6 km/h (0 Bft) N-NW 4,4 C 6,6 C 1,3 km/h (1 Bft)
27.12.2023 12:00 8,8 C 78 % 1012,0 hPa 0,0 l/m 1,8 km/h (1 Bft) SW 5,1 C 8,8 C 3,0 km/h (1 Bft)
27.12.2023 13:00 10,7 C 73 % 1010,5 hPa 0,0 l/m 0,6 km/h (0 Bft) W-SW 6,1 C 10,7 C 1,8 km/h (1 Bft)
27.12.2023 14:00 10,3 C 74 % 1010,2 hPa 0,0 l/m 0,6 km/h (0 Bft) N 5,9 C 10,3 C 2,5 km/h (1 Bft)
27.12.2023 15:00 9,8 C 79 % 1009,3 hPa 0,0 l/m 0,0 km/h (0 Bft) N 6,3 C 9,8 C 0,0 km/h (0 Bft)
27.12.2023 16:00 7,9 C 87 % 1009,0 hPa 0,0 l/m 0,0 km/h (0 Bft) N 5,7 C 7,9 C 0,0 km/h (0 Bft)
27.12.2023 17:00 5,3 C 93 % 1009,3 hPa 0,0 l/m 0,0 km/h (0 Bft) N 4,3 C 5,3 C 0,0 km/h (0 Bft)
27.12.2023 18:00 4,1 C 91 % 1009,5 hPa 0,0 l/m 0,0 km/h (0 Bft) SO 2,8 C 4,1 C 0,0 km/h (0 Bft)
27.12.2023 19:00 3,7 C 90 % 1009,5 hPa 0,0 l/m 1,8 km/h (1 Bft) N 2,1 C 3,7 C 3,0 km/h (1 Bft)
27.12.2023 20:00 2,5 C 92 % 1009,5 hPa 0,0 l/m 1,3 km/h (1 Bft) O 1,4 C 2,5 C 1,8 km/h (1 Bft)
27.12.2023 21:00 3,8 C 83 % 1009,7 hPa 0,0 l/m 2,3 km/h (1 Bft) O 1,1 C 3,8 C 4,3 km/h (1 Bft)
27.12.2023 22:00 11,4 C 46 % 1009,6 hPa 0,0 l/m 4,2 km/h (1 Bft) S 0,2 C 11,1 C 8,4 km/h (2 Bft)
27.12.2023 23:00 11,7 C 44 % 1010,1 hPa 0,0 l/m 6,6 km/h (2 Bft) S-SW -0,3 C 11,4 C 10,4 km/h (2 Bft)
28.12.2023 00:00 11,3 C 46 % 1010,8 hPa 0,0 l/m 5,6 km/h (1 Bft) SW -0,1 C 10,5 C 8,6 km/h (2 Bft)
28.12.2023 01:00 11,9 C 44 % 1011,4 hPa 0,0 l/m 11,5 km/h (2 Bft) S -0,2 C 8,9 C 16,6 km/h (3 Bft)
28.12.2023 02:00 12,0 C 44 % 1011,8 hPa 0,0 l/m 7,9 km/h (2 Bft) SW -0,0 C 11,0 C 17,3 km/h (3 Bft)
28.12.2023 03:00 11,5 C 44 % 1012,8 hPa 0,0 l/m 9,1 km/h (2 Bft) S-SW -0,3 C 9,7 C 14,8 km/h (3 Bft)
28.12.2023 04:00 11,8 C 45 % 1013,0 hPa 0,0 l/m 9,2 km/h (2 Bft) S-SW 0,1 C 10,1 C 15,3 km/h (3 Bft)
28.12.2023 05:00 12,0 C 45 % 1012,5 hPa 0,0 l/m 7,9 km/h (2 Bft) SW 0,4 C 11,0 C 12,3 km/h (3 Bft)
28.12.2023 06:00 11,6 C 46 % 1013,0 hPa 0,0 l/m 7,4 km/h (2 Bft) S 0,4 C 10,9 C 11,5 km/h (2 Bft)
28.12.2023 07:00 10,9 C 49 % 1013,0 hPa 0,0 l/m 2,3 km/h (1 Bft) S-SW 0,6 C 10,9 C 4,8 km/h (1 Bft)
28.12.2023 08:00 11,6 C 47 % 1013,3 hPa 0,0 l/m 7,9 km/h (2 Bft) S 0,7 C 10,6 C 12,3 km/h (3 Bft)
28.12.2023 09:00 11,4 C 57 % 1013,6 hPa 0,0 l/m 10,4 km/h (2 Bft) S 3,2 C 9,0 C 18,4 km/h (3 Bft)
28.12.2023 10:00 11,8 C 58 % 1013,8 hPa 0,0 l/m 7,2 km/h (2 Bft) SW 3,6 C 11,2 C 11,2 km/h (2 Bft)
28.12.2023 11:00 11,9 C 60 % 1013,6 hPa 0,0 l/m 5,4 km/h (1 Bft) SW 4,4 C 11,6 C 6,6 km/h (2 Bft)
28.12.2023 12:00 11,9 C 62 % 1012,8 hPa 0,0 l/m 7,9 km/h (2 Bft) SW 4,7 C 10,9 C 11,2 km/h (2 Bft)
28.12.2023 13:00 10,9 C 72 % 1012,5 hPa 0,0 l/m 4,8 km/h (1 Bft) S 5,9 C 10,6 C 7,4 km/h (2 Bft)
28.12.2023 14:00 9,6 C 82 % 1012,2 hPa 0,9 l/m 6,6 km/h (2 Bft) S 6,5 C 9,3 C 11,2 km/h (2 Bft)
28.12.2023 15:00 9,9 C 80 % 1012,1 hPa 0,0 l/m 9,1 km/h (2 Bft) S-SO 6,6 C 8,2 C 14,0 km/h (3 Bft)
28.12.2023 16:00 10,4 C 79 % 1011,7 hPa 0,0 l/m 7,3 km/h (2 Bft) W 6,9 C 9,4 C 9,2 km/h (2 Bft)
28.12.2023 17:00 10,1 C 83 % 1012,0 hPa 0,0 l/m 7,4 km/h (2 Bft) SW 7,3 C 9,3 C 12,3 km/h (3 Bft)
28.12.2023 18:00 9,9 C 87 % 1011,8 hPa 0,3 l/m 13,5 km/h (3 Bft) W-SW 7,8 C 5,8 C 19,1 km/h (3 Bft)
28.12.2023 19:00 9,4 C 91 % 1012,1 hPa 0,6 l/m 7,9 km/h (2 Bft) S 8,1 C 8,4 C 14,3 km/h (3 Bft)
28.12.2023 20:00 10,1 C 85 % 1011,8 hPa 0,0 l/m 6,6 km/h (2 Bft) S-SW 7,7 C 9,9 C 9,7 km/h (2 Bft)
28.12.2023 21:00 10,4 C 81 % 1011,4 hPa 0,0 l/m 8,1 km/h (2 Bft) S-SW 7,2 C 8,9 C 14,3 km/h (3 Bft)
28.12.2023 22:00 10,5 C 80 % 1011,3 hPa 0,0 l/m 7,3 km/h (2 Bft) S-SW 7,1 C 9,4 C 11,7 km/h (2 Bft)
28.12.2023 23:00 10,1 C 80 % 1011,4 hPa 0,0 l/m 9,1 km/h (2 Bft) W-SW 6,8 C 8,2 C 13,0 km/h (3 Bft)
29.12.2023 00:00 9,8 C 79 % 1011,5 hPa 0,0 l/m 6,1 km/h (2 Bft) S-SW 6,3 C 9,5 C 11,0 km/h (2 Bft)
29.12.2023 01:00 10,8 C 74 % 1011,3 hPa 0,0 l/m 14,0 km/h (3 Bft) SW 6,3 C 6,5 C 19,6 km/h (3 Bft)
29.12.2023 02:00 10,3 C 79 % 1011,5 hPa 0,0 l/m 16,0 km/h (3 Bft) S-SW 6,8 C 5,1 C 21,5 km/h (4 Bft)
29.12.2023 03:00 10,1 C 83 % 1011,5 hPa 0,0 l/m 11,7 km/h (2 Bft) W 7,3 C 6,7 C 18,4 km/h (3 Bft)
29.12.2023 04:00 9,9 C 84 % 1011,3 hPa 0,0 l/m 12,3 km/h (3 Bft) W-SW 7,3 C 6,3 C 16,6 km/h (3 Bft)
29.12.2023 05:00 10,0 C 84 % 1011,3 hPa 0,0 l/m 10,4 km/h (2 Bft) W-SW 7,4 C 7,3 C 17,3 km/h (3 Bft)
29.12.2023 06:00 9,9 C 84 % 1011,3 hPa 0,0 l/m 9,2 km/h (2 Bft) SW 7,3 C 8,0 C 13,5 km/h (3 Bft)
29.12.2023 07:00 10,4 C 84 % 1011,6 hPa 0,0 l/m 10,4 km/h (2 Bft) W-SW 7,7 C 7,8 C 14,8 km/h (3 Bft)
29.12.2023 08:00 10,4 C 85 % 1011,7 hPa 0,0 l/m 11,7 km/h (2 Bft) S-SW 8,0 C 7,1 C 19,6 km/h (3 Bft)
29.12.2023 09:00 11,0 C 82 % 1012,0 hPa 0,0 l/m 13,0 km/h (3 Bft) SW 8,0 C 7,2 C 19,6 km/h (3 Bft)
29.12.2023 10:00 11,6 C 80 % 1011,9 hPa 0,0 l/m 13,5 km/h (3 Bft) W-SW 8,3 C 7,7 C 19,1 km/h (3 Bft)
29.12.2023 11:00 11,6 C 82 % 1011,3 hPa 0,0 l/m 10,4 km/h (2 Bft) W-SW 8,5 C 9,2 C 15,9 km/h (3 Bft)
29.12.2023 12:00 12,0 C 79 % 1010,7 hPa 0,0 l/m 14,1 km/h (3 Bft) SW 8,5 C 7,9 C 21,5 km/h (4 Bft)
29.12.2023 13:00 12,5 C 71 % 1010,0 hPa 0,0 l/m 14,0 km/h (3 Bft) S-SW 7,3 C 8,5 C 19,6 km/h (3 Bft)
29.12.2023 14:00 12,1 C 73 % 1009,0 hPa 0,0 l/m 10,4 km/h (2 Bft) S-SW 7,4 C 9,7 C 19,1 km/h (3 Bft)
29.12.2023 15:00 11,9 C 77 % 1008,9 hPa 0,0 l/m 8,4 km/h (2 Bft) S-SW 7,9 C 10,6 C 12,3 km/h (3 Bft)
29.12.2023 16:00 11,3 C 80 % 1008,8 hPa 0,0 l/m 11,7 km/h (2 Bft) S-SW 7,9 C 8,2 C 17,9 km/h (3 Bft)
29.12.2023 17:00 11,1 C 80 % 1008,8 hPa 0,0 l/m 12,3 km/h (3 Bft) SW 7,8 C 7,7 C 18,4 km/h (3 Bft)
29.12.2023 18:00 10,9 C 80 % 1008,8 hPa 0,0 l/m 7,9 km/h (2 Bft) SW 7,5 C 9,8 C 13,5 km/h (3 Bft)
29.12.2023 19:00 10,4 C 81 % 1009,0 hPa 0,0 l/m 8,4 km/h (2 Bft) S 7,1 C 9,0 C 12,3 km/h (3 Bft)
29.12.2023 20:00 10,0 C 81 % 1009,3 hPa 0,0 l/m 3,6 km/h (1 Bft) S-SW 6,8 C 10,0 C 8,4 km/h (2 Bft)
29.12.2023 21:00 10,3 C 82 % 1009,2 hPa 0,0 l/m 5,6 km/h (1 Bft) SW 7,3 C 10,3 C 8,4 km/h (2 Bft)
29.12.2023 22:00 10,4 C 83 % 1009,0 hPa 0,0 l/m 11,5 km/h (2 Bft) W 7,6 C 7,3 C 15,9 km/h (3 Bft)
29.12.2023 23:00 10,2 C 83 % 1009,4 hPa 0,0 l/m 14,8 km/h (3 Bft) SW 7,4 C 5,6 C 25,0 km/h (4 Bft)
30.12.2023 00:00 9,8 C 81 % 1009,8 hPa 0,0 l/m 12,8 km/h (3 Bft) S-SW 6,6 C 5,9 C 21,5 km/h (4 Bft)
30.12.2023 01:00 9,1 C 80 % 1010,3 hPa 0,0 l/m 8,4 km/h (2 Bft) SW 5,8 C 7,7 C 15,3 km/h (3 Bft)
30.12.2023 02:00 9,6 C 78 % 1010,5 hPa 0,0 l/m 9,1 km/h (2 Bft) SW 5,9 C 7,7 C 13,0 km/h (3 Bft)
30.12.2023 03:00 9,6 C 77 % 1011,0 hPa 0,0 l/m 10,4 km/h (2 Bft) S-SW 5,8 C 6,9 C 14,8 km/h (3 Bft)
30.12.2023 04:00 9,4 C 84 % 1011,2 hPa 0,0 l/m 7,9 km/h (2 Bft) W-SW 6,7 C 8,3 C 13,0 km/h (3 Bft)
30.12.2023 05:00 9,7 C 83 % 1011,1 hPa 0,0 l/m 10,4 km/h (2 Bft) SW 6,9 C 7,0 C 15,3 km/h (3 Bft)
30.12.2023 06:00 9,6 C 83 % 1011,5 hPa 0,0 l/m 9,9 km/h (2 Bft) W-SW 6,7 C 7,2 C 13,0 km/h (3 Bft)
30.12.2023 07:00 9,3 C 84 % 1011,9 hPa 0,0 l/m 10,4 km/h (2 Bft) W-SW 6,7 C 6,6 C 16,0 km/h (3 Bft)
30.12.2023 08:00 8,9 C 86 % 1012,3 hPa 0,0 l/m 7,3 km/h (2 Bft) W 6,6 C 7,7 C 11,0 km/h (2 Bft)
30.12.2023 09:00 9,8 C 83 % 1012,4 hPa 0,0 l/m 7,9 km/h (2 Bft) W-SW 7,0 C 8,6 C 12,3 km/h (3 Bft)
30.12.2023 10:00 10,1 C 82 % 1012,2 hPa 0,0 l/m 7,4 km/h (2 Bft) S-SW 7,2 C 9,4 C 11,5 km/h (2 Bft)
30.12.2023 11:00 11,1 C 78 % 1011,6 hPa 0,0 l/m 6,6 km/h (2 Bft) SW 7,5 C 10,9 C 11,5 km/h (2 Bft)
30.12.2023 12:00 11,4 C 77 % 1010,3 hPa 0,0 l/m 7,9 km/h (2 Bft) W-SW 7,4 C 10,3 C 12,3 km/h (3 Bft)
30.12.2023 13:00 12,7 C 71 % 1008,7 hPa 0,0 l/m 9,9 km/h (2 Bft) SW 7,5 C 10,7 C 14,1 km/h (3 Bft)
30.12.2023 14:00 12,6 C 71 % 1007,7 hPa 0,0 l/m 6,8 km/h (2 Bft) W-SW 7,4 C 12,0 C 10,4 km/h (2 Bft)
30.12.2023 15:00 12,1 C 70 % 1007,3 hPa 0,0 l/m 6,1 km/h (2 Bft) SW 6,8 C 12,1 C 7,2 km/h (2 Bft)
30.12.2023 16:00 9,9 C 77 % 1007,2 hPa 0,0 l/m 0,0 km/h (0 Bft) SO 5,9 C 9,9 C 1,3 km/h (1 Bft)
30.12.2023 17:00 7,8 C 86 % 1007,2 hPa 0,0 l/m 1,1 km/h (1 Bft) SO 5,5 C 7,8 C 2,5 km/h (1 Bft)
30.12.2023 18:00 6,7 C 89 % 1006,8 hPa 0,0 l/m 1,8 km/h (1 Bft) SO 5,0 C 6,7 C 3,0 km/h (1 Bft)
30.12.2023 19:00 5,7 C 92 % 1006,5 hPa 0,0 l/m 1,3 km/h (1 Bft) N 4,4 C 5,7 C 1,8 km/h (1 Bft)
30.12.2023 20:00 5,2 C 92 % 1006,0 hPa 0,0 l/m 0,0 km/h (0 Bft) N 4,0 C 5,2 C 1,3 km/h (1 Bft)
30.12.2023 21:00 4,1 C 94 % 1005,6 hPa 0,0 l/m 0,0 km/h (0 Bft) N 3,1 C 4,1 C 0,0 km/h (0 Bft)
30.12.2023 22:00 3,8 C 96 % 1004,8 hPa 0,0 l/m 0,0 km/h (0 Bft) O-SO 3,1 C 3,8 C 1,3 km/h (1 Bft)
30.12.2023 23:00 4,9 C 93 % 1004,3 hPa 0,0 l/m 1,8 km/h (1 Bft) W-SW 3,8 C 4,9 C 4,3 km/h (1 Bft)
31.12.2023 00:00 3,0 C 95 % 1004,1 hPa 0,0 l/m 0,6 km/h (0 Bft) O-SO 2,3 C 3,0 C 2,5 km/h (1 Bft)
31.12.2023 01:00 3,7 C 95 % 1003,3 hPa 0,0 l/m 0,6 km/h (0 Bft) SO 2,9 C 3,7 C 3,6 km/h (1 Bft)
31.12.2023 02:00 3,9 C 93 % 1002,1 hPa 0,0 l/m 1,8 km/h (1 Bft) O-SO 2,8 C 3,9 C 4,8 km/h (1 Bft)
31.12.2023 03:00 4,0 C 91 % 1001,5 hPa 0,0 l/m 2,5 km/h (1 Bft) O-NO 2,7 C 4,0 C 6,1 km/h (2 Bft)
31.12.2023 04:00 4,9 C 89 % 1000,8 hPa 0,0 l/m 1,1 km/h (1 Bft) O-NO 3,2 C 4,9 C 3,0 km/h (1 Bft)
31.12.2023 05:00 3,8 C 91 % 999,8 hPa 0,0 l/m 0,6 km/h (0 Bft) N 2,4 C 3,8 C 2,5 km/h (1 Bft)
31.12.2023 06:00 2,6 C 95 % 1000,0 hPa 0,0 l/m 0,6 km/h (0 Bft) O-SO 1,8 C 2,6 C 1,3 km/h (1 Bft)
31.12.2023 07:00 3,8 C 95 % 1000,6 hPa 0,0 l/m 0,0 km/h (0 Bft) O 3,0 C 3,8 C 1,3 km/h (1 Bft)
31.12.2023 08:00 4,0 C 92 % 1000,0 hPa 0,0 l/m 0,6 km/h (0 Bft) N 2,8 C 4,0 C 1,3 km/h (1 Bft)
31.12.2023 09:00 4,6 C 91 % 999,8 hPa 0,0 l/m 1,3 km/h (1 Bft) O-NO 3,1 C 4,6 C 3,0 km/h (1 Bft)
31.12.2023 10:00 6,1 C 88 % 998,9 hPa 0,0 l/m 2,5 km/h (1 Bft) NO 4,1 C 6,1 C 3,6 km/h (1 Bft)
31.12.2023 11:00 11,7 C 66 % 998,3 hPa 0,0 l/m 3,0 km/h (1 Bft) S 5,6 C 11,7 C 6,6 km/h (2 Bft)
31.12.2023 12:00 9,3 C 85 % 1000,3 hPa 0,6 l/m 15,3 km/h (3 Bft) S-SW 6,7 C 5,3 C 21,4 km/h (4 Bft)
31.12.2023 13:00 7,4 C 88 % 1001,0 hPa 0,6 l/m 11,5 km/h (2 Bft) S-SW 5,6 C 4,2 C 15,3 km/h (3 Bft)
31.12.2023 14:00 6,4 C 91 % 1001,0 hPa 0,9 l/m 7,3 km/h (2 Bft) SW 5,1 C 5,2 C 11,0 km/h (2 Bft)
31.12.2023 15:00 6,3 C 88 % 1000,8 hPa 0,3 l/m 3,0 km/h (1 Bft) W-SW 4,4 C 6,3 C 6,1 km/h (2 Bft)
31.12.2023 16:00 6,5 C 86 % 1001,3 hPa 0,0 l/m 5,0 km/h (1 Bft) W-SW 4,3 C 6,5 C 7,2 km/h (2 Bft)
31.12.2023 17:00 6,6 C 86 % 1001,3 hPa 0,0 l/m 0,0 km/h (0 Bft) SW 4,4 C 6,6 C 0,0 km/h (0 Bft)
31.12.2023 18:00 7,6 C 81 % 1001,2 hPa 0,0 l/m 5,6 km/h (1 Bft) S-SW 4,5 C 6,7 C 8,4 km/h (2 Bft)
31.12.2023 19:00 7,7 C 79 % 1001,5 hPa 0,0 l/m 3,8 km/h (1 Bft) S-SW 4,2 C 7,7 C 6,6 km/h (2 Bft)
31.12.2023 20:00 8,1 C 76 % 1001,5 hPa 0,0 l/m 6,1 km/h (2 Bft) S-SW 4,1 C 8,1 C 11,5 km/h (2 Bft)
31.12.2023 21:00 8,2 C 73 % 1001,6 hPa 0,0 l/m 11,0 km/h (2 Bft) W-SW 3,6 C 5,1 C 15,9 km/h (3 Bft)
31.12.2023 22:00 7,9 C 74 % 1002,2 hPa 0,0 l/m 8,6 km/h (2 Bft) SW 3,5 C 6,2 C 13,0 km/h (3 Bft)
31.12.2023 23:00 7,9 C 75 % 1002,0 hPa 0,0 l/m 12,3 km/h (3 Bft) SW 3,7 C 4,0 C 19,1 km/h (3 Bft)
Min-Datum _ 27.12.23 27.12.23 31.12.23 - 26.12.23 - 28.12.23 31.12.23 26.12.23
_ Min-Zeit 20:43 23:13 11:35 - 22:43 - 03:13 13:35 23:13
Minimum _ 2,3 C 43 % 998,2 hPa - 0,0 km/h (0 Bft) - -0,5 C 1,1 C 0,0 km/h (0 Bft)
Max-Datum _ 30.12.23 27.12.23 27.12.23 28.12.23 26.12.23 - 29.12.23 30.12.23 26.12.23
_ Max-Zeit 13:13 09:13 00:13 14:43 11:13 - 11:43 14:43 11:13
Maximum _ 12,8 C 97 % 1015,8 hPa 0,9 l/m 25,6 km/h
W-SW (4 Bft)
- 8,6 C 12,7 C 36,7 km/h
W-SW (5 Bft)
Durchschnitt _ 8,7 C 78 % 1009,5 hPa #4,2 l/m 7,6 km/h (2 Bft) W-SW 4,8 C 7,0 C 11,9 km/h (2 Bft)
www.sexauwetter.de